createdAt,value
2023-04-26T00:02:51.542Z,7.47
2023-04-26T00:07:54.361Z,7.37
2023-04-26T00:12:56.109Z,7.29
2023-04-26T00:17:57.956Z,7.20
2023-04-26T00:22:59.822Z,7.10
2023-04-26T00:28:02.046Z,6.99
2023-04-26T00:33:04.077Z,6.89
2023-04-26T00:38:06.383Z,6.80
2023-04-26T00:43:08.682Z,6.69
2023-04-26T00:48:10.832Z,6.50
2023-04-26T00:53:14.558Z,6.32
2023-04-26T00:58:16.476Z,6.12
2023-04-26T01:03:18.773Z,5.98
2023-04-26T01:08:21.829Z,5.84
2023-04-26T01:13:26.022Z,5.68
2023-04-26T01:18:27.929Z,5.54
2023-04-26T01:23:31.951Z,5.40
2023-04-26T01:28:34.317Z,5.29
2023-04-26T01:33:39.882Z,5.22
2023-04-26T01:38:41.801Z,5.10
2023-04-26T01:43:43.525Z,4.99
2023-04-26T01:48:45.143Z,4.85
2023-04-26T01:53:47.122Z,4.72
2023-04-26T01:58:48.776Z,4.63
2023-04-26T02:03:51.333Z,4.58
2023-04-26T02:08:54.810Z,4.48
2023-04-26T02:13:56.827Z,4.32
2023-04-26T02:19:00.050Z,4.18
2023-04-26T02:24:01.765Z,4.09
2023-04-26T02:29:06.338Z,4.03
2023-04-26T02:34:08.585Z,3.98
2023-04-26T02:39:12.121Z,3.91
2023-04-26T02:44:14.244Z,3.85
2023-04-26T02:49:16.578Z,3.79
2023-04-26T02:54:18.631Z,3.74
2023-04-26T02:59:20.471Z,3.71
2023-04-26T03:04:22.877Z,3.66
2023-04-26T03:09:24.829Z,3.59
2023-04-26T03:14:27.174Z,3.52
2023-04-26T03:19:29.730Z,3.46
2023-04-26T03:24:31.927Z,3.41
2023-04-26T03:29:33.739Z,3.34
2023-04-26T03:34:35.563Z,3.28
2023-04-26T03:39:37.656Z,3.27
2023-04-26T03:44:39.638Z,3.29
2023-04-26T03:49:42.690Z,3.28
2023-04-26T03:54:44.376Z,3.24
2023-04-26T03:59:46.975Z,3.27
2023-04-26T04:04:49.156Z,3.42
2023-04-26T04:09:51.244Z,3.88
2023-04-26T04:14:55.234Z,4.42
2023-04-26T04:19:58.515Z,4.65
2023-04-26T04:25:00.385Z,4.83
2023-04-26T04:30:04.271Z,4.97
2023-04-26T04:35:07.376Z,5.18
2023-04-26T04:40:11.651Z,5.43
2023-04-26T04:45:14.915Z,5.96
2023-04-26T04:50:17.696Z,6.73
2023-04-26T04:55:19.758Z,7.30
2023-04-26T05:00:22.019Z,7.58
2023-04-26T05:05:37.246Z,8.46
2023-04-26T05:10:39.256Z,10.46
2023-04-26T05:15:41.468Z,12.64
2023-04-26T05:20:43.305Z,14.62
2023-04-26T05:25:45.531Z,16.51
2023-04-26T05:31:05.922Z,18.10
2023-04-26T05:36:23.707Z,19.41
2023-04-26T05:41:25.438Z,20.28
2023-04-26T05:46:27.296Z,21.05
2023-04-26T05:51:29.945Z,21.70
2023-04-26T05:56:32.287Z,22.31
2023-04-26T06:01:34.341Z,22.56
2023-04-26T06:06:36.992Z,22.81
2023-04-26T06:11:39.299Z,23.05
2023-04-26T06:16:43.725Z,23.25
2023-04-26T06:21:45.955Z,23.64
2023-04-26T06:26:47.685Z,23.70
2023-04-26T06:31:49.830Z,23.16
2023-04-26T06:36:54.671Z,22.90
2023-04-26T06:41:57.691Z,23.00
2023-04-26T06:47:02.748Z,22.20
2023-04-26T06:52:08.280Z,20.43
2023-04-26T06:57:11.455Z,18.77
2023-04-26T07:02:15.671Z,17.12
2023-04-26T07:07:17.884Z,15.70
2023-04-26T07:12:19.652Z,14.43
2023-04-26T07:17:22.357Z,13.49
2023-04-26T07:22:24.515Z,12.76
2023-04-26T07:27:26.395Z,12.43
2023-04-26T07:32:28.174Z,13.43
2023-04-26T07:37:29.866Z,14.29
2023-04-26T07:42:31.525Z,14.20
2023-04-26T07:47:33.364Z,13.91
2023-04-26T07:52:35.458Z,13.68
2023-04-26T07:57:37.781Z,14.43
2023-04-26T08:02:45.091Z,15.31
2023-04-26T08:07:47.198Z,16.36
2023-04-26T08:12:50.424Z,17.53
2023-04-26T08:17:53.434Z,18.37
2023-04-26T08:22:57.137Z,19.08
2023-04-26T08:27:58.835Z,19.19
2023-04-26T08:33:01.568Z,18.12
2023-04-26T08:38:03.590Z,17.49
2023-04-26T08:43:05.684Z,16.36
2023-04-26T08:48:14.826Z,15.10
2023-04-26T08:53:21.610Z,14.23
2023-04-26T08:58:24.188Z,13.50
2023-04-26T09:03:26.619Z,12.90
2023-04-26T09:08:29.522Z,12.39
2023-04-26T09:13:31.488Z,12.16
2023-04-26T09:18:34.162Z,12.03
2023-04-26T09:23:36.177Z,11.94
2023-04-26T09:28:38.042Z,12.83
2023-04-26T09:33:58.542Z,13.26
2023-04-26T09:39:00.545Z,12.94
2023-04-26T09:44:02.454Z,12.35
2023-04-26T09:49:04.247Z,11.87
2023-04-26T09:54:06.488Z,12.04
2023-04-26T09:59:11.488Z,12.51
2023-04-26T10:04:13.527Z,12.47
2023-04-26T10:09:16.048Z,12.35
2023-04-26T10:14:18.427Z,12.51
2023-04-26T10:19:21.942Z,12.33
2023-04-26T10:24:24.428Z,12.04
2023-04-26T10:29:54.990Z,11.88
2023-04-26T10:35:13.518Z,11.74
2023-04-26T10:40:24.503Z,11.50
2023-04-26T10:45:28.926Z,11.27
2023-04-26T10:50:30.694Z,11.18
2023-04-26T10:55:40.594Z,11.37
2023-04-26T11:01:18.437Z,11.77
2023-04-26T11:06:23.396Z,11.98
2023-04-26T11:11:27.318Z,12.00
2023-04-26T11:16:29.383Z,11.69
2023-04-26T11:21:32.679Z,11.29
2023-04-26T11:26:35.240Z,11.15
2023-04-26T11:31:37.266Z,11.36
2023-04-26T11:36:39.079Z,11.78
2023-04-26T11:41:40.826Z,12.09
2023-04-26T11:46:45.273Z,12.15
2023-04-26T11:51:49.628Z,12.20
2023-04-26T11:56:51.319Z,12.23
2023-04-26T12:01:53.572Z,12.10
2023-04-26T12:06:56.490Z,11.90
2023-04-26T12:12:02.772Z,11.67
2023-04-26T12:17:07.471Z,11.69
2023-04-26T12:22:09.444Z,11.78
2023-04-26T12:27:20.893Z,11.87
2023-04-26T12:32:22.972Z,11.69
2023-04-26T12:37:24.772Z,11.65
2023-04-26T12:42:26.749Z,11.82
2023-04-26T12:47:28.496Z,12.10
2023-04-26T12:52:30.534Z,12.42
2023-04-26T12:57:32.353Z,12.67
2023-04-26T13:02:34.540Z,12.71
2023-04-26T13:07:37.583Z,12.51
2023-04-26T13:12:39.704Z,12.26
2023-04-26T13:17:43.003Z,12.28
2023-04-26T13:22:44.815Z,12.31
2023-04-26T13:27:46.961Z,12.40
2023-04-26T13:32:49.518Z,12.49
2023-04-26T13:37:52.718Z,12.34
2023-04-26T13:42:54.408Z,12.16
2023-04-26T13:47:56.168Z,11.99
2023-04-26T13:52:58.051Z,11.86
2023-04-26T13:57:59.755Z,11.75
2023-04-26T14:03:01.628Z,11.21
2023-04-26T14:08:03.633Z,10.82
2023-04-26T14:13:05.417Z,10.76
2023-04-26T14:18:08.751Z,10.83
2023-04-26T14:23:10.634Z,10.93
2023-04-26T14:28:12.726Z,10.94
2023-04-26T14:33:14.624Z,10.88
2023-04-26T14:38:16.759Z,10.79
2023-04-26T14:43:18.797Z,10.56
2023-04-26T14:48:20.756Z,10.37
2023-04-26T14:53:22.448Z,10.44
2023-04-26T14:58:25.738Z,10.60
2023-04-26T15:03:27.860Z,10.68
2023-04-26T15:08:30.058Z,10.77
2023-04-26T15:13:31.897Z,10.77
2023-04-26T15:18:33.663Z,10.71
2023-04-26T15:23:35.489Z,10.59
2023-04-26T15:28:37.216Z,10.35
2023-04-26T15:33:39.198Z,10.24
2023-04-26T15:38:44.956Z,10.28
2023-04-26T15:43:46.578Z,10.30
2023-04-26T15:48:48.873Z,10.29
2023-04-26T15:53:51.523Z,10.26
2023-04-26T15:58:53.234Z,10.20
2023-04-26T16:03:55.116Z,10.17
2023-04-26T16:08:56.998Z,10.22
2023-04-26T16:13:58.777Z,10.34
2023-04-26T16:19:00.820Z,10.29
2023-04-26T16:24:02.532Z,10.02
2023-04-26T16:29:04.535Z,9.80
2023-04-26T16:34:06.907Z,9.63
2023-04-26T16:39:08.789Z,9.43
2023-04-26T16:44:11.193Z,9.30
2023-04-26T16:49:12.981Z,9.25
2023-04-26T16:54:14.686Z,9.24
2023-04-26T16:59:16.394Z,9.24
2023-04-26T17:04:18.498Z,9.20
2023-04-26T17:09:20.744Z,9.10
2023-04-26T17:14:22.416Z,8.95
2023-04-26T17:19:24.504Z,8.81
2023-04-26T17:24:26.257Z,8.67
2023-04-26T17:29:28.175Z,8.53
2023-04-26T17:34:29.981Z,8.43
2023-04-26T17:39:31.726Z,8.37
2023-04-26T17:44:33.433Z,8.32
2023-04-26T17:49:35.325Z,8.26
2023-04-26T17:54:37.082Z,8.13
2023-04-26T17:59:38.746Z,8.01
2023-04-26T18:04:41.361Z,7.86
2023-04-26T18:09:43.323Z,7.71
2023-04-26T18:14:45.293Z,7.55
2023-04-26T18:19:47.069Z,7.39
2023-04-26T18:24:48.795Z,7.21
2023-04-26T18:29:50.683Z,7.04
2023-04-26T18:34:52.523Z,6.86
2023-04-26T18:39:54.699Z,6.69
2023-04-26T18:44:56.637Z,6.53
2023-04-26T18:49:59.160Z,6.35
2023-04-26T18:55:01.112Z,6.19
2023-04-26T19:00:05.047Z,6.03
2023-04-26T19:05:08.335Z,5.91
2023-04-26T19:10:10.602Z,5.77
2023-04-26T19:15:12.393Z,5.67
2023-04-26T19:20:15.159Z,5.58
2023-04-26T19:25:20.579Z,5.49
2023-04-26T19:30:22.278Z,5.42
2023-04-26T19:35:24.249Z,5.34
2023-04-26T19:40:25.986Z,5.26
2023-04-26T19:45:29.035Z,5.19
2023-04-26T19:50:30.747Z,5.08
2023-04-26T19:55:32.873Z,4.97
2023-04-26T20:00:39.017Z,4.84
2023-04-26T20:05:41.178Z,4.71
2023-04-26T20:10:42.994Z,4.60
2023-04-26T20:15:44.661Z,4.48
2023-04-26T20:20:47.823Z,4.35
2023-04-26T20:25:51.276Z,4.19
2023-04-26T20:30:53.183Z,4.04
2023-04-26T20:35:54.942Z,3.92
2023-04-26T20:40:57.334Z,3.82
2023-04-26T20:45:59.057Z,3.73
2023-04-26T20:51:02.056Z,3.63
2023-04-26T20:56:04.127Z,3.54
2023-04-26T21:01:07.343Z,3.45
2023-04-26T21:06:09.857Z,3.37
2023-04-26T21:11:31.490Z,3.32
2023-04-26T21:16:33.171Z,3.28
2023-04-26T21:21:35.171Z,3.23
2023-04-26T21:26:36.948Z,3.13
2023-04-26T21:31:38.668Z,2.98
2023-04-26T21:36:41.021Z,2.85
2023-04-26T21:42:03.652Z,2.73
2023-04-26T21:47:25.478Z,2.65
2023-04-26T21:52:28.796Z,2.65
2023-04-26T21:57:30.515Z,2.71
2023-04-26T22:02:32.377Z,2.79
2023-04-26T22:07:34.851Z,2.84
2023-04-26T22:12:36.691Z,2.90
2023-04-26T22:17:38.430Z,2.93
2023-04-26T22:22:40.827Z,2.93
2023-04-26T22:27:42.481Z,2.93
2023-04-26T22:32:44.174Z,2.94
2023-04-26T22:37:47.150Z,2.98
2023-04-26T22:42:48.968Z,3.05
2023-04-26T22:47:51.033Z,3.11
2023-04-26T22:52:53.003Z,3.21
2023-04-26T22:57:54.846Z,3.36
2023-04-26T23:02:56.760Z,3.49
2023-04-26T23:07:59.899Z,3.62
2023-04-26T23:13:09.804Z,3.76
2023-04-26T23:18:11.924Z,3.85
2023-04-26T23:23:13.653Z,3.90
2023-04-26T23:28:15.465Z,3.96
2023-04-26T23:33:19.406Z,3.98
2023-04-26T23:38:23.023Z,3.97
2023-04-26T23:43:25.398Z,3.98
2023-04-26T23:48:28.711Z,4.02
2023-04-26T23:53:30.843Z,4.06
2023-04-26T23:58:32.524Z,4.13
